sensor_id;sensor_type;location;lat;lon;timestamp;P1;durP1;ratioP1;P2;durP2;ratioP2
68479;SDS011;55469;48.934;12.050;2022-07-29T00:00:06;2.88;;;2.30;;
68479;SDS011;55469;48.934;12.050;2022-07-29T00:02:33;2.35;;;2.15;;
68479;SDS011;55469;48.934;12.050;2022-07-29T00:04:59;2.63;;;2.10;;
68479;SDS011;55469;48.934;12.050;2022-07-29T00:07:25;2.38;;;2.17;;
68479;SDS011;55469;48.934;12.050;2022-07-29T00:09:51;2.85;;;2.10;;
68479;SDS011;55469;48.934;12.050;2022-07-29T00:12:22;3.40;;;2.20;;
68479;SDS011;55469;48.934;12.050;2022-07-29T00:14:49;3.40;;;2.17;;
68479;SDS011;55469;48.934;12.050;2022-07-29T00:17:15;2.35;;;2.15;;
68479;SDS011;55469;48.934;12.050;2022-07-29T00:19:41;4.40;;;2.20;;
68479;SDS011;55469;48.934;12.050;2022-07-29T00:22:07;2.75;;;2.05;;
68479;SDS011;55469;48.934;12.050;2022-07-29T00:24:33;4.32;;;2.42;;
68479;SDS011;55469;48.934;12.050;2022-07-29T00:26:58;4.30;;;2.20;;
68479;SDS011;55469;48.934;12.050;2022-07-29T00:29:24;2.47;;;2.08;;
68479;SDS011;55469;48.934;12.050;2022-07-29T00:31:50;2.67;;;2.20;;
68479;SDS011;55469;48.934;12.050;2022-07-29T00:34:16;3.05;;;2.35;;
68479;SDS011;55469;48.934;12.050;2022-07-29T00:37:05;2.70;;;2.30;;
68479;SDS011;55469;48.934;12.050;2022-07-29T00:39:31;2.42;;;2.10;;
68479;SDS011;55469;48.934;12.050;2022-07-29T00:41:56;3.15;;;2.10;;
68479;SDS011;55469;48.934;12.050;2022-07-29T00:44:22;3.70;;;2.35;;
68479;SDS011;55469;48.934;12.050;2022-07-29T00:46:48;2.30;;;2.10;;
68479;SDS011;55469;48.934;12.050;2022-07-29T00:49:14;2.90;;;2.13;;
68479;SDS011;55469;48.934;12.050;2022-07-29T00:51:39;3.38;;;2.30;;
68479;SDS011;55469;48.934;12.050;2022-07-29T00:54:06;3.00;;;2.03;;
68479;SDS011;55469;48.934;12.050;2022-07-29T00:56:32;4.57;;;2.00;;
68479;SDS011;55469;48.934;12.050;2022-07-29T00:58:59;2.50;;;2.22;;
68479;SDS011;55469;48.934;12.050;2022-07-29T01:01:25;2.22;;;1.95;;
68479;SDS011;55469;48.934;12.050;2022-07-29T01:03:52;2.47;;;2.03;;
68479;SDS011;55469;48.934;12.050;2022-07-29T01:06:18;2.30;;;2.10;;
68479;SDS011;55469;48.934;12.050;2022-07-29T01:08:47;4.80;;;2.38;;
68479;SDS011;55469;48.934;12.050;2022-07-29T01:11:15;2.40;;;2.00;;
68479;SDS011;55469;48.934;12.050;2022-07-29T01:13:42;2.60;;;2.40;;
68479;SDS011;55469;48.934;12.050;2022-07-29T01:16:24;2.13;;;1.98;;
68479;SDS011;55469;48.934;12.050;2022-07-29T01:19:00;2.25;;;2.05;;
68479;SDS011;55469;48.934;12.050;2022-07-29T01:22:25;3.03;;;2.08;;
68479;SDS011;55469;48.934;12.050;2022-07-29T01:31:13;2.33;;;2.13;;
68479;SDS011;55469;48.934;12.050;2022-07-29T01:34:29;2.60;;;2.40;;
68479;SDS011;55469;48.934;12.050;2022-07-29T01:39:54;3.00;;;2.42;;
68479;SDS011;55469;48.934;12.050;2022-07-29T01:42:34;3.80;;;2.28;;
68479;SDS011;55469;48.934;12.050;2022-07-29T01:50:35;3.30;;;2.20;;
68479;SDS011;55469;48.934;12.050;2022-07-29T01:53:10;2.50;;;2.30;;
68479;SDS011;55469;48.934;12.050;2022-07-29T01:55:42;2.42;;;2.22;;
68479;SDS011;55469;48.934;12.050;2022-07-29T01:58:11;2.42;;;1.90;;
68479;SDS011;55469;48.934;12.050;2022-07-29T02:00:38;3.05;;;2.20;;
68479;SDS011;55469;48.934;12.050;2022-07-29T02:03:07;2.30;;;2.10;;
68479;SDS011;55469;48.934;12.050;2022-07-29T02:05:36;2.88;;;2.10;;
68479;SDS011;55469;48.934;12.050;2022-07-29T02:08:04;3.33;;;2.10;;
68479;SDS011;55469;48.934;12.050;2022-07-29T02:10:32;2.88;;;2.08;;
68479;SDS011;55469;48.934;12.050;2022-07-29T02:12:59;2.40;;;2.10;;
68479;SDS011;55469;48.934;12.050;2022-07-29T02:15:28;2.45;;;2.25;;
68479;SDS011;55469;48.934;12.050;2022-07-29T02:18:30;2.50;;;2.10;;
68479;SDS011;55469;48.934;12.050;2022-07-29T02:20:52;2.50;;;2.30;;
68479;SDS011;55469;48.934;12.050;2022-07-29T02:23:20;3.53;;;2.10;;
68479;SDS011;55469;48.934;12.050;2022-07-29T02:25:49;3.22;;;2.10;;
68479;SDS011;55469;48.934;12.050;2022-07-29T02:28:18;2.63;;;2.20;;
68479;SDS011;55469;48.934;12.050;2022-07-29T02:30:46;3.60;;;2.08;;
68479;SDS011;55469;48.934;12.050;2022-07-29T02:33:14;2.20;;;2.00;;
68479;SDS011;55469;48.934;12.050;2022-07-29T02:35:45;2.45;;;2.00;;
68479;SDS011;55469;48.934;12.050;2022-07-29T02:38:13;2.30;;;2.10;;
68479;SDS011;55469;48.934;12.050;2022-07-29T02:41:01;2.00;;;1.83;;
68479;SDS011;55469;48.934;12.050;2022-07-29T02:43:33;2.43;;;1.73;;
68479;SDS011;55469;48.934;12.050;2022-07-29T02:46:00;2.40;;;2.00;;
68479;SDS011;55469;48.934;12.050;2022-07-29T02:48:33;2.70;;;2.20;;
68479;SDS011;55469;48.934;12.050;2022-07-29T02:51:12;2.30;;;2.08;;
68479;SDS011;55469;48.934;12.050;2022-07-29T02:53:43;2.40;;;2.13;;
68479;SDS011;55469;48.934;12.050;2022-07-29T02:56:14;2.20;;;2.00;;
68479;SDS011;55469;48.934;12.050;2022-07-29T02:58:49;2.85;;;2.10;;
68479;SDS011;55469;48.934;12.050;2022-07-29T03:01:22;3.17;;;2.17;;
68479;SDS011;55469;48.934;12.050;2022-07-29T03:03:50;2.75;;;2.00;;
68479;SDS011;55469;48.934;12.050;2022-07-29T03:06:19;3.38;;;2.40;;
68479;SDS011;55469;48.934;12.050;2022-07-29T03:08:47;3.15;;;2.30;;
68479;SDS011;55469;48.934;12.050;2022-07-29T03:11:14;2.55;;;2.35;;
68479;SDS011;55469;48.934;12.050;2022-07-29T03:13:41;2.42;;;2.20;;
68479;SDS011;55469;48.934;12.050;2022-07-29T03:16:07;2.92;;;2.50;;
68479;SDS011;55469;48.934;12.050;2022-07-29T03:18:34;2.45;;;2.25;;
68479;SDS011;55469;48.934;12.050;2022-07-29T03:21:01;2.95;;;2.20;;
68479;SDS011;55469;48.934;12.050;2022-07-29T03:23:28;2.35;;;2.15;;
68479;SDS011;55469;48.934;12.050;2022-07-29T03:25:55;2.50;;;2.30;;
68479;SDS011;55469;48.934;12.050;2022-07-29T03:28:21;2.45;;;2.25;;
68479;SDS011;55469;48.934;12.050;2022-07-29T03:30:47;2.58;;;2.20;;
68479;SDS011;55469;48.934;12.050;2022-07-29T03:33:14;2.95;;;2.60;;
68479;SDS011;55469;48.934;12.050;2022-07-29T03:35:41;2.53;;;2.30;;
68479;SDS011;55469;48.934;12.050;2022-07-29T03:38:07;2.28;;;2.00;;
68479;SDS011;55469;48.934;12.050;2022-07-29T03:40:49;2.88;;;2.30;;
68479;SDS011;55469;48.934;12.050;2022-07-29T03:43:18;3.33;;;2.10;;
68479;SDS011;55469;48.934;12.050;2022-07-29T03:45:47;3.47;;;2.40;;
68479;SDS011;55469;48.934;12.050;2022-07-29T03:48:17;3.17;;;2.35;;
68479;SDS011;55469;48.934;12.050;2022-07-29T03:50:46;2.63;;;2.40;;
68479;SDS011;55469;48.934;12.050;2022-07-29T03:53:12;3.30;;;2.17;;
68479;SDS011;55469;48.934;12.050;2022-07-29T03:55:42;2.55;;;2.33;;
68479;SDS011;55469;48.934;12.050;2022-07-29T03:58:11;4.63;;;2.50;;
68479;SDS011;55469;48.934;12.050;2022-07-29T04:00:38;2.78;;;2.50;;
68479;SDS011;55469;48.934;12.050;2022-07-29T04:03:05;2.60;;;2.40;;
68479;SDS011;55469;48.934;12.050;2022-07-29T04:05:31;2.67;;;2.47;;
68479;SDS011;55469;48.934;12.050;2022-07-29T04:07:57;2.67;;;2.20;;
68479;SDS011;55469;48.934;12.050;2022-07-29T04:10:23;3.35;;;2.42;;
68479;SDS011;55469;48.934;12.050;2022-07-29T04:12:49;2.80;;;2.40;;
68479;SDS011;55469;48.934;12.050;2022-07-29T04:15:15;3.00;;;2.45;;
68479;SDS011;55469;48.934;12.050;2022-07-29T04:17:41;3.83;;;2.83;;
68479;SDS011;55469;48.934;12.050;2022-07-29T04:20:07;2.80;;;2.60;;
68479;SDS011;55469;48.934;12.050;2022-07-29T04:22:33;3.67;;;2.80;;
68479;SDS011;55469;48.934;12.050;2022-07-29T04:24:59;3.13;;;2.70;;
68479;SDS011;55469;48.934;12.050;2022-07-29T04:27:25;2.90;;;2.60;;
68479;SDS011;55469;48.934;12.050;2022-07-29T04:29:50;2.72;;;2.53;;
68479;SDS011;55469;48.934;12.050;2022-07-29T04:32:16;3.17;;;2.60;;
68479;SDS011;55469;48.934;12.050;2022-07-29T04:34:42;3.83;;;2.40;;
68479;SDS011;55469;48.934;12.050;2022-07-29T04:37:08;2.88;;;2.20;;
68479;SDS011;55469;48.934;12.050;2022-07-29T04:39:33;2.90;;;2.70;;
68479;SDS011;55469;48.934;12.050;2022-07-29T04:41:59;3.13;;;2.40;;
68479;SDS011;55469;48.934;12.050;2022-07-29T04:44:25;3.13;;;2.45;;
68479;SDS011;55469;48.934;12.050;2022-07-29T04:46:51;3.75;;;2.30;;
68479;SDS011;55469;48.934;12.050;2022-07-29T04:49:17;2.67;;;2.47;;
68479;SDS011;55469;48.934;12.050;2022-07-29T04:51:43;2.58;;;2.35;;
68479;SDS011;55469;48.934;12.050;2022-07-29T04:54:08;2.88;;;2.42;;
68479;SDS011;55469;48.934;12.050;2022-07-29T04:56:34;2.38;;;2.15;;
68479;SDS011;55469;48.934;12.050;2022-07-29T04:59:00;3.60;;;2.38;;
68479;SDS011;55469;48.934;12.050;2022-07-29T05:01:25;3.58;;;2.53;;
68479;SDS011;55469;48.934;12.050;2022-07-29T05:03:51;2.58;;;2.38;;
68479;SDS011;55469;48.934;12.050;2022-07-29T05:06:17;2.60;;;2.40;;
68479;SDS011;55469;48.934;12.050;2022-07-29T05:08:43;3.80;;;2.42;;
68479;SDS011;55469;48.934;12.050;2022-07-29T05:11:08;2.58;;;2.38;;
68479;SDS011;55469;48.934;12.050;2022-07-29T05:13:34;2.60;;;2.40;;
68479;SDS011;55469;48.934;12.050;2022-07-29T05:16:00;4.57;;;2.38;;
68479;SDS011;55469;48.934;12.050;2022-07-29T05:18:26;2.35;;;2.25;;
68479;SDS011;55469;48.934;12.050;2022-07-29T05:20:52;2.90;;;2.20;;
68479;SDS011;55469;48.934;12.050;2022-07-29T05:23:18;2.70;;;2.50;;
68479;SDS011;55469;48.934;12.050;2022-07-29T05:25:43;3.05;;;2.50;;
68479;SDS011;55469;48.934;12.050;2022-07-29T05:28:09;2.97;;;2.40;;
68479;SDS011;55469;48.934;12.050;2022-07-29T05:30:36;2.60;;;2.40;;
68479;SDS011;55469;48.934;12.050;2022-07-29T05:33:01;2.72;;;2.45;;
68479;SDS011;55469;48.934;12.050;2022-07-29T05:35:27;2.47;;;2.25;;
68479;SDS011;55469;48.934;12.050;2022-07-29T05:37:53;2.80;;;2.40;;
68479;SDS011;55469;48.934;12.050;2022-07-29T05:40:19;4.07;;;2.40;;
68479;SDS011;55469;48.934;12.050;2022-07-29T05:42:45;3.08;;;2.38;;
68479;SDS011;55469;48.934;12.050;2022-07-29T05:45:11;3.08;;;2.40;;
68479;SDS011;55469;48.934;12.050;2022-07-29T05:47:36;2.75;;;2.55;;
68479;SDS011;55469;48.934;12.050;2022-07-29T05:50:02;2.50;;;2.30;;
68479;SDS011;55469;48.934;12.050;2022-07-29T05:52:29;2.40;;;2.20;;
68479;SDS011;55469;48.934;12.050;2022-07-29T05:54:55;2.75;;;2.55;;
68479;SDS011;55469;48.934;12.050;2022-07-29T05:57:22;2.55;;;2.35;;
68479;SDS011;55469;48.934;12.050;2022-07-29T05:59:49;2.47;;;2.28;;
68479;SDS011;55469;48.934;12.050;2022-07-29T06:02:16;2.47;;;2.28;;
68479;SDS011;55469;48.934;12.050;2022-07-29T06:04:42;2.95;;;2.40;;
68479;SDS011;55469;48.934;12.050;2022-07-29T06:07:08;3.72;;;2.40;;
68479;SDS011;55469;48.934;12.050;2022-07-29T06:09:34;2.35;;;2.15;;
68479;SDS011;55469;48.934;12.050;2022-07-29T06:12:00;2.80;;;2.00;;
68479;SDS011;55469;48.934;12.050;2022-07-29T06:14:26;2.95;;;2.00;;
68479;SDS011;55469;48.934;12.050;2022-07-29T06:16:53;4.00;;;2.25;;
68479;SDS011;55469;48.934;12.050;2022-07-29T06:19:19;3.10;;;2.10;;
68479;SDS011;55469;48.934;12.050;2022-07-29T06:21:45;4.10;;;2.20;;
68479;SDS011;55469;48.934;12.050;2022-07-29T06:24:12;3.10;;;2.40;;
68479;SDS011;55469;48.934;12.050;2022-07-29T06:26:39;2.20;;;2.00;;
68479;SDS011;55469;48.934;12.050;2022-07-29T06:29:05;2.25;;;1.92;;
68479;SDS011;55469;48.934;12.050;2022-07-29T06:31:32;5.10;;;2.70;;
68479;SDS011;55469;48.934;12.050;2022-07-29T06:33:58;2.38;;;2.08;;
68479;SDS011;55469;48.934;12.050;2022-07-29T06:36:23;2.55;;;2.10;;
68479;SDS011;55469;48.934;12.050;2022-07-29T06:38:49;2.05;;;1.95;;
68479;SDS011;55469;48.934;12.050;2022-07-29T06:41:15;2.50;;;1.95;;
68479;SDS011;55469;48.934;12.050;2022-07-29T06:43:43;2.40;;;1.85;;
68479;SDS011;55469;48.934;12.050;2022-07-29T06:46:10;2.15;;;1.98;;
68479;SDS011;55469;48.934;12.050;2022-07-29T06:48:39;3.67;;;2.03;;
68479;SDS011;55469;48.934;12.050;2022-07-29T06:51:07;2.05;;;1.95;;
68479;SDS011;55469;48.934;12.050;2022-07-29T06:53:34;2.92;;;2.10;;
68479;SDS011;55469;48.934;12.050;2022-07-29T06:56:01;3.20;;;2.22;;
68479;SDS011;55469;48.934;12.050;2022-07-29T06:58:29;2.95;;;2.05;;
68479;SDS011;55469;48.934;12.050;2022-07-29T07:00:55;2.42;;;2.10;;
68479;SDS011;55469;48.934;12.050;2022-07-29T07:03:22;4.35;;;2.10;;
68479;SDS011;55469;48.934;12.050;2022-07-29T07:05:49;2.22;;;1.98;;
68479;SDS011;55469;48.934;12.050;2022-07-29T07:08:15;2.45;;;2.25;;
68479;SDS011;55469;48.934;12.050;2022-07-29T07:10:41;2.63;;;2.10;;
68479;SDS011;55469;48.934;12.050;2022-07-29T07:13:07;2.80;;;2.10;;
68479;SDS011;55469;48.934;12.050;2022-07-29T07:15:35;2.72;;;2.10;;
68479;SDS011;55469;48.934;12.050;2022-07-29T07:18:01;2.50;;;2.00;;
68479;SDS011;55469;48.934;12.050;2022-07-29T07:20:27;2.28;;;2.08;;
68479;SDS011;55469;48.934;12.050;2022-07-29T07:22:53;3.38;;;2.20;;
68479;SDS011;55469;48.934;12.050;2022-07-29T07:25:19;3.25;;;2.10;;
68479;SDS011;55469;48.934;12.050;2022-07-29T07:27:45;3.17;;;2.40;;
68479;SDS011;55469;48.934;12.050;2022-07-29T07:30:11;2.78;;;2.05;;
68479;SDS011;55469;48.934;12.050;2022-07-29T07:32:38;3.80;;;2.30;;
68479;SDS011;55469;48.934;12.050;2022-07-29T07:35:04;2.58;;;2.38;;
68479;SDS011;55469;48.934;12.050;2022-07-29T07:37:32;3.13;;;2.30;;
68479;SDS011;55469;48.934;12.050;2022-07-29T07:39:59;3.67;;;2.38;;
68479;SDS011;55469;48.934;12.050;2022-07-29T07:42:25;2.72;;;2.35;;
68479;SDS011;55469;48.934;12.050;2022-07-29T07:44:51;3.03;;;2.30;;
68479;SDS011;55469;48.934;12.050;2022-07-29T07:47:17;2.55;;;2.30;;
68479;SDS011;55469;48.934;12.050;2022-07-29T07:49:48;2.45;;;2.25;;
68479;SDS011;55469;48.934;12.050;2022-07-29T07:52:18;2.58;;;2.38;;
68479;SDS011;55469;48.934;12.050;2022-07-29T07:54:46;2.53;;;2.05;;
68479;SDS011;55469;48.934;12.050;2022-07-29T07:57:12;4.13;;;2.50;;
68479;SDS011;55469;48.934;12.050;2022-07-29T07:59:39;2.83;;;2.10;;
68479;SDS011;55469;48.934;12.050;2022-07-29T08:02:05;2.55;;;2.22;;
68479;SDS011;55469;48.934;12.050;2022-07-29T08:04:31;3.70;;;2.50;;
68479;SDS011;55469;48.934;12.050;2022-07-29T08:06:58;3.10;;;2.53;;
68479;SDS011;55469;48.934;12.050;2022-07-29T08:09:27;2.97;;;2.20;;
68479;SDS011;55469;48.934;12.050;2022-07-29T08:11:56;3.53;;;2.30;;
68479;SDS011;55469;48.934;12.050;2022-07-29T08:14:29;3.00;;;2.13;;
68479;SDS011;55469;48.934;12.050;2022-07-29T08:16:58;2.50;;;2.30;;
68479;SDS011;55469;48.934;12.050;2022-07-29T08:19:24;2.50;;;2.30;;
68479;SDS011;55469;48.934;12.050;2022-07-29T08:21:50;2.30;;;2.13;;
68479;SDS011;55469;48.934;12.050;2022-07-29T08:24:19;3.92;;;2.30;;
68479;SDS011;55469;48.934;12.050;2022-07-29T08:27:04;2.47;;;2.28;;
68479;SDS011;55469;48.934;12.050;2022-07-29T08:29:30;3.13;;;2.20;;
68479;SDS011;55469;48.934;12.050;2022-07-29T08:31:56;2.78;;;2.47;;
68479;SDS011;55469;48.934;12.050;2022-07-29T08:34:21;2.08;;;1.98;;
68479;SDS011;55469;48.934;12.050;2022-07-29T08:36:47;2.58;;;2.38;;
68479;SDS011;55469;48.934;12.050;2022-07-29T08:39:13;2.55;;;2.20;;
68479;SDS011;55469;48.934;12.050;2022-07-29T08:41:39;2.70;;;2.30;;
68479;SDS011;55469;48.934;12.050;2022-07-29T08:44:05;2.60;;;2.40;;
68479;SDS011;55469;48.934;12.050;2022-07-29T08:46:30;2.58;;;2.28;;
68479;SDS011;55469;48.934;12.050;2022-07-29T08:48:56;2.70;;;2.47;;
68479;SDS011;55469;48.934;12.050;2022-07-29T08:51:22;2.22;;;2.05;;
68479;SDS011;55469;48.934;12.050;2022-07-29T08:53:50;3.13;;;2.47;;
68479;SDS011;55469;48.934;12.050;2022-07-29T08:56:17;2.70;;;2.50;;
68479;SDS011;55469;48.934;12.050;2022-07-29T08:58:44;2.50;;;2.30;;
68479;SDS011;55469;48.934;12.050;2022-07-29T09:01:12;2.53;;;2.30;;
68479;SDS011;55469;48.934;12.050;2022-07-29T09:03:42;2.30;;;2.10;;
68479;SDS011;55469;48.934;12.050;2022-07-29T09:06:12;2.90;;;2.30;;
68479;SDS011;55469;48.934;12.050;2022-07-29T09:08:40;2.30;;;2.10;;
68479;SDS011;55469;48.934;12.050;2022-07-29T09:11:07;2.70;;;2.40;;
68479;SDS011;55469;48.934;12.050;2022-07-29T09:13:33;3.25;;;2.15;;
68479;SDS011;55469;48.934;12.050;2022-07-29T09:15:59;3.40;;;2.13;;
68479;SDS011;55469;48.934;12.050;2022-07-29T09:18:33;2.50;;;2.25;;
68479;SDS011;55469;48.934;12.050;2022-07-29T09:21:03;2.33;;;2.13;;
68479;SDS011;55469;48.934;12.050;2022-07-29T09:24:04;2.30;;;2.10;;
68479;SDS011;55469;48.934;12.050;2022-07-29T09:26:44;3.58;;;2.47;;
68479;SDS011;55469;48.934;12.050;2022-07-29T09:29:15;2.35;;;1.90;;
68479;SDS011;55469;48.934;12.050;2022-07-29T09:31:48;2.33;;;2.03;;
68479;SDS011;55469;48.934;12.050;2022-07-29T09:34:17;3.53;;;2.10;;
68479;SDS011;55469;48.934;12.050;2022-07-29T09:36:53;2.53;;;1.88;;
68479;SDS011;55469;48.934;12.050;2022-07-29T09:39:27;2.72;;;2.22;;
68479;SDS011;55469;48.934;12.050;2022-07-29T09:42:09;2.95;;;2.15;;
68479;SDS011;55469;48.934;12.050;2022-07-29T09:44:42;2.38;;;2.20;;
68479;SDS011;55469;48.934;12.050;2022-07-29T09:47:13;2.50;;;2.20;;
68479;SDS011;55469;48.934;12.050;2022-07-29T09:49:57;2.50;;;2.25;;
68479;SDS011;55469;48.934;12.050;2022-07-29T09:52:25;2.80;;;2.20;;
68479;SDS011;55469;48.934;12.050;2022-07-29T09:54:52;2.08;;;1.88;;
68479;SDS011;55469;48.934;12.050;2022-07-29T09:57:26;2.50;;;2.30;;
68479;SDS011;55469;48.934;12.050;2022-07-29T10:00:00;4.65;;;2.20;;
68479;SDS011;55469;48.934;12.050;2022-07-29T10:02:34;2.85;;;2.22;;
68479;SDS011;55469;48.934;12.050;2022-07-29T10:05:02;4.25;;;2.35;;
68479;SDS011;55469;48.934;12.050;2022-07-29T10:07:47;5.68;;;2.47;;
68479;SDS011;55469;48.934;12.050;2022-07-29T10:10:23;3.50;;;2.20;;
68479;SDS011;55469;48.934;12.050;2022-07-29T10:12:53;2.95;;;2.03;;
68479;SDS011;55469;48.934;12.050;2022-07-29T10:15:21;2.35;;;2.10;;
68479;SDS011;55469;48.934;12.050;2022-07-29T10:17:49;3.95;;;2.17;;
68479;SDS011;55469;48.934;12.050;2022-07-29T10:20:17;2.38;;;2.17;;
68479;SDS011;55469;48.934;12.050;2022-07-29T10:22:44;2.85;;;2.38;;
68479;SDS011;55469;48.934;12.050;2022-07-29T10:25:12;2.33;;;2.13;;
68479;SDS011;55469;48.934;12.050;2022-07-29T10:27:39;3.45;;;2.33;;
68479;SDS011;55469;48.934;12.050;2022-07-29T10:30:05;2.40;;;2.08;;
68479;SDS011;55469;48.934;12.050;2022-07-29T10:32:34;2.10;;;2.00;;
68479;SDS011;55469;48.934;12.050;2022-07-29T10:43:51;2.00;;;1.77;;
68479;SDS011;55469;48.934;12.050;2022-07-29T10:46:36;2.00;;;1.90;;
68479;SDS011;55469;48.934;12.050;2022-07-29T10:54:37;2.13;;;1.70;;
68479;SDS011;55469;48.934;12.050;2022-07-29T10:59:51;1.83;;;1.70;;
68479;SDS011;55469;48.934;12.050;2022-07-29T11:05:08;2.13;;;1.90;;
68479;SDS011;55469;48.934;12.050;2022-07-29T11:07:37;2.58;;;1.90;;
68479;SDS011;55469;48.934;12.050;2022-07-29T11:10:25;2.47;;;1.70;;
68479;SDS011;55469;48.934;12.050;2022-07-29T11:12:54;1.80;;;1.70;;
68479;SDS011;55469;48.934;12.050;2022-07-29T11:15:20;2.20;;;2.00;;
68479;SDS011;55469;48.934;12.050;2022-07-29T11:20:35;2.47;;;1.80;;
68479;SDS011;55469;48.934;12.050;2022-07-29T11:39:38;2.53;;;1.70;;
68479;SDS011;55469;48.934;12.050;2022-07-29T11:47:50;1.90;;;1.55;;
68479;SDS011;55469;48.934;12.050;2022-07-29T11:53:00;3.20;;;1.67;;
68479;SDS011;55469;48.934;12.050;2022-07-29T11:55:37;1.80;;;1.70;;
68479;SDS011;55469;48.934;12.050;2022-07-29T11:58:05;2.25;;;1.95;;
68479;SDS011;55469;48.934;12.050;2022-07-29T12:00:36;2.05;;;1.70;;
68479;SDS011;55469;48.934;12.050;2022-07-29T12:03:06;1.60;;;1.50;;
68479;SDS011;55469;48.934;12.050;2022-07-29T12:05:41;2.55;;;1.58;;
68479;SDS011;55469;48.934;12.050;2022-07-29T12:08:11;1.70;;;1.60;;
68479;SDS011;55469;48.934;12.050;2022-07-29T12:10:47;1.70;;;1.58;;
68479;SDS011;55469;48.934;12.050;2022-07-29T12:13:18;1.83;;;1.45;;
68479;SDS011;55469;48.934;12.050;2022-07-29T12:15:55;1.58;;;1.48;;
68479;SDS011;55469;48.934;12.050;2022-07-29T12:18:23;1.55;;;1.45;;
68479;SDS011;55469;48.934;12.050;2022-07-29T12:20:49;1.90;;;1.67;;
68479;SDS011;55469;48.934;12.050;2022-07-29T12:23:29;1.63;;;1.52;;
68479;SDS011;55469;48.934;12.050;2022-07-29T12:25:57;1.50;;;1.40;;
68479;SDS011;55469;48.934;12.050;2022-07-29T12:28:23;1.92;;;1.40;;
68479;SDS011;55469;48.934;12.050;2022-07-29T12:30:49;1.80;;;1.50;;
68479;SDS011;55469;48.934;12.050;2022-07-29T12:35:59;2.17;;;1.40;;
68479;SDS011;55469;48.934;12.050;2022-07-29T12:38:27;1.55;;;1.45;;
68479;SDS011;55469;48.934;12.050;2022-07-29T12:40:54;1.70;;;1.60;;
68479;SDS011;55469;48.934;12.050;2022-07-29T12:43:21;1.70;;;1.60;;
68479;SDS011;55469;48.934;12.050;2022-07-29T12:45:49;1.48;;;1.38;;
68479;SDS011;55469;48.934;12.050;2022-07-29T12:48:31;1.42;;;1.33;;
68479;SDS011;55469;48.934;12.050;2022-07-29T12:51:05;1.30;;;1.20;;
68479;SDS011;55469;48.934;12.050;2022-07-29T12:53:33;1.55;;;1.45;;
68479;SDS011;55469;48.934;12.050;2022-07-29T12:56:03;1.67;;;1.20;;
68479;SDS011;55469;48.934;12.050;2022-07-29T12:58:31;1.83;;;1.52;;
68479;SDS011;55469;48.934;12.050;2022-07-29T13:01:07;1.40;;;1.30;;
68479;SDS011;55469;48.934;12.050;2022-07-29T13:06:27;1.33;;;1.23;;
68479;SDS011;55469;48.934;12.050;2022-07-29T13:09:21;1.42;;;1.20;;
68479;SDS011;55469;48.934;12.050;2022-07-29T13:11:50;1.40;;;1.30;;
68479;SDS011;55469;48.934;12.050;2022-07-29T13:14:31;1.33;;;1.10;;
68479;SDS011;55469;48.934;12.050;2022-07-29T13:17:04;2.08;;;1.27;;
68479;SDS011;55469;48.934;12.050;2022-07-29T13:19:37;1.40;;;1.30;;
68479;SDS011;55469;48.934;12.050;2022-07-29T13:22:05;1.30;;;1.20;;
68479;SDS011;55469;48.934;12.050;2022-07-29T13:24:33;2.03;;;1.33;;
68479;SDS011;55469;48.934;12.050;2022-07-29T13:26:59;1.23;;;1.13;;
68479;SDS011;55469;48.934;12.050;2022-07-29T13:29:25;1.13;;;1.00;;
68479;SDS011;55469;48.934;12.050;2022-07-29T13:31:51;1.90;;;1.20;;
68479;SDS011;55469;48.934;12.050;2022-07-29T13:34:17;1.30;;;1.20;;
68479;SDS011;55469;48.934;12.050;2022-07-29T13:36:46;1.20;;;1.10;;
68479;SDS011;55469;48.934;12.050;2022-07-29T13:39:12;1.25;;;1.15;;
68479;SDS011;55469;48.934;12.050;2022-07-29T13:41:38;1.20;;;1.02;;
68479;SDS011;55469;48.934;12.050;2022-07-29T13:44:04;3.05;;;1.10;;
68479;SDS011;55469;48.934;12.050;2022-07-29T13:46:29;1.40;;;1.30;;
68479;SDS011;55469;48.934;12.050;2022-07-29T13:48:55;4.15;;;1.40;;
68479;SDS011;55469;48.934;12.050;2022-07-29T13:51:21;1.38;;;1.10;;
68479;SDS011;55469;48.934;12.050;2022-07-29T13:53:46;2.80;;;1.10;;
68479;SDS011;55469;48.934;12.050;2022-07-29T13:56:12;1.17;;;1.08;;
68479;SDS011;55469;48.934;12.050;2022-07-29T13:58:38;1.30;;;1.20;;
68479;SDS011;55469;48.934;12.050;2022-07-29T14:01:04;2.50;;;1.38;;
68479;SDS011;55469;48.934;12.050;2022-07-29T14:03:29;1.48;;;1.30;;
68479;SDS011;55469;48.934;12.050;2022-07-29T14:05:56;1.33;;;1.20;;
68479;SDS011;55469;48.934;12.050;2022-07-29T14:08:21;1.70;;;1.10;;
68479;SDS011;55469;48.934;12.050;2022-07-29T14:10:48;1.50;;;1.40;;
68479;SDS011;55469;48.934;12.050;2022-07-29T14:13:13;2.08;;;1.23;;
68479;SDS011;55469;48.934;12.050;2022-07-29T14:15:39;1.10;;;1.08;;
68479;SDS011;55469;48.934;12.050;2022-07-29T14:18:05;1.60;;;1.05;;
68479;SDS011;55469;48.934;12.050;2022-07-29T14:20:30;1.08;;;1.02;;
68479;SDS011;55469;48.934;12.050;2022-07-29T14:22:56;1.35;;;1.25;;
68479;SDS011;55469;48.934;12.050;2022-07-29T14:25:22;1.38;;;1.27;;
68479;SDS011;55469;48.934;12.050;2022-07-29T14:27:48;1.35;;;1.25;;
68479;SDS011;55469;48.934;12.050;2022-07-29T14:30:14;1.23;;;1.13;;
68479;SDS011;55469;48.934;12.050;2022-07-29T14:32:40;1.20;;;1.10;;
68479;SDS011;55469;48.934;12.050;2022-07-29T14:35:06;4.03;;;1.70;;
68479;SDS011;55469;48.934;12.050;2022-07-29T14:37:33;2.05;;;1.40;;
68479;SDS011;55469;48.934;12.050;2022-07-29T14:40:00;4.72;;;1.33;;
68479;SDS011;55469;48.934;12.050;2022-07-29T14:42:28;3.00;;;1.40;;
68479;SDS011;55469;48.934;12.050;2022-07-29T14:44:56;1.90;;;1.50;;
68479;SDS011;55469;48.934;12.050;2022-07-29T14:47:21;2.00;;;1.55;;
68479;SDS011;55469;48.934;12.050;2022-07-29T14:49:48;1.88;;;1.38;;
68479;SDS011;55469;48.934;12.050;2022-07-29T14:52:14;1.55;;;1.42;;
68479;SDS011;55469;48.934;12.050;2022-07-29T14:54:40;5.35;;;1.63;;
68479;SDS011;55469;48.934;12.050;2022-07-29T14:57:06;3.53;;;1.48;;
68479;SDS011;55469;48.934;12.050;2022-07-29T14:59:32;1.88;;;1.35;;
68479;SDS011;55469;48.934;12.050;2022-07-29T15:01:57;2.03;;;1.38;;
68479;SDS011;55469;48.934;12.050;2022-07-29T15:04:23;2.58;;;1.60;;
68479;SDS011;55469;48.934;12.050;2022-07-29T15:06:49;1.85;;;1.38;;
68479;SDS011;55469;48.934;12.050;2022-07-29T15:09:15;2.35;;;1.42;;
68479;SDS011;55469;48.934;12.050;2022-07-29T15:11:40;1.60;;;1.40;;
68479;SDS011;55469;48.934;12.050;2022-07-29T15:14:06;2.45;;;1.50;;
68479;SDS011;55469;48.934;12.050;2022-07-29T15:16:32;1.73;;;1.60;;
68479;SDS011;55469;48.934;12.050;2022-07-29T15:19:01;2.30;;;1.50;;
68479;SDS011;55469;48.934;12.050;2022-07-29T15:21:27;2.05;;;1.30;;
68479;SDS011;55469;48.934;12.050;2022-07-29T15:23:53;3.30;;;1.60;;
68479;SDS011;55469;48.934;12.050;2022-07-29T15:26:19;2.00;;;1.30;;
68479;SDS011;55469;48.934;12.050;2022-07-29T15:28:45;1.92;;;1.48;;
68479;SDS011;55469;48.934;12.050;2022-07-29T15:31:11;1.83;;;1.40;;
68479;SDS011;55469;48.934;12.050;2022-07-29T15:33:37;1.52;;;1.42;;
68479;SDS011;55469;48.934;12.050;2022-07-29T15:36:03;2.08;;;1.33;;
68479;SDS011;55469;48.934;12.050;2022-07-29T15:38:29;1.40;;;1.30;;
68479;SDS011;55469;48.934;12.050;2022-07-29T15:40:55;2.17;;;1.50;;
68479;SDS011;55469;48.934;12.050;2022-07-29T15:43:22;1.48;;;1.27;;
68479;SDS011;55469;48.934;12.050;2022-07-29T15:45:48;2.00;;;1.50;;
68479;SDS011;55469;48.934;12.050;2022-07-29T15:48:32;1.30;;;1.20;;